createdAt,value
2018-03-16T00:00:14.542Z,2.33
2018-03-16T00:01:14.583Z,2.37
2018-03-16T00:02:14.565Z,2.30
2018-03-16T00:03:14.735Z,2.30
2018-03-16T00:04:14.523Z,2.28
2018-03-16T00:05:14.527Z,2.44
2018-03-16T00:06:14.582Z,2.34
2018-03-16T00:07:14.510Z,2.40
2018-03-16T00:08:14.514Z,2.31
2018-03-16T00:09:14.503Z,2.30
2018-03-16T00:10:14.503Z,2.30
2018-03-16T00:11:14.539Z,2.34
2018-03-16T00:12:14.487Z,2.28
2018-03-16T00:13:14.484Z,2.28
2018-03-16T00:14:14.476Z,2.31
2018-03-16T00:15:14.475Z,2.28
2018-03-16T00:16:14.525Z,2.28
2018-03-16T00:17:14.507Z,2.37
2018-03-16T00:18:14.476Z,2.30
2018-03-16T00:19:14.474Z,2.28
2018-03-16T00:20:14.447Z,2.28
2018-03-16T00:21:14.490Z,2.30
2018-03-16T00:22:14.455Z,2.27
2018-03-16T00:23:14.436Z,2.16
2018-03-16T00:24:14.435Z,2.20
2018-03-16T00:25:14.425Z,2.16
2018-03-16T00:26:14.480Z,2.17
2018-03-16T00:27:14.454Z,2.17
2018-03-16T00:28:14.422Z,2.17
2018-03-16T00:29:14.420Z,2.17
2018-03-16T00:30:14.404Z,2.20
2018-03-16T00:31:14.434Z,2.13
2018-03-16T00:32:14.402Z,2.16
2018-03-16T00:33:14.386Z,2.20
2018-03-16T00:34:14.383Z,2.19
2018-03-16T00:35:14.388Z,2.22
2018-03-16T00:36:14.422Z,2.13
2018-03-16T00:37:14.369Z,2.17
2018-03-16T00:38:14.411Z,2.10
2018-03-16T00:39:14.371Z,2.12
2018-03-16T00:40:14.370Z,2.13
2018-03-16T00:41:14.400Z,2.09
2018-03-16T00:42:14.345Z,2.17
2018-03-16T00:43:14.350Z,2.16
2018-03-16T00:44:14.337Z,2.22
2018-03-16T00:45:14.368Z,2.20
2018-03-16T00:46:14.359Z,2.12
2018-03-16T00:47:14.331Z,2.16
2018-03-16T00:48:14.317Z,2.20
2018-03-16T00:49:14.319Z,2.16
2018-03-16T00:50:14.354Z,2.28
2018-03-16T00:51:14.310Z,2.35
2018-03-16T00:52:14.308Z,2.26
2018-03-16T00:53:14.311Z,2.27
2018-03-16T00:54:14.296Z,2.28
2018-03-16T00:55:14.337Z,2.27
2018-03-16T00:56:14.290Z,2.35
2018-03-16T00:57:14.273Z,2.28
2018-03-16T00:58:14.285Z,2.30
2018-03-16T00:59:14.265Z,2.41
2018-03-16T01:00:14.320Z,2.37
2018-03-16T01:01:14.264Z,2.40
2018-03-16T01:02:14.262Z,2.44
2018-03-16T01:03:14.286Z,2.46
2018-03-16T01:04:14.250Z,2.55
2018-03-16T01:05:14.278Z,2.46
2018-03-16T01:06:14.259Z,2.44
2018-03-16T01:07:14.239Z,2.48
2018-03-16T01:08:14.223Z,2.52
2018-03-16T01:09:14.218Z,2.48
2018-03-16T01:10:14.269Z,2.55
2018-03-16T01:11:14.210Z,2.51
2018-03-16T01:12:14.213Z,2.49
2018-03-16T01:13:14.211Z,2.49
2018-03-16T01:14:14.196Z,2.55
2018-03-16T01:15:14.645Z,2.46
2018-03-16T01:16:14.194Z,2.53
2018-03-16T01:17:14.184Z,2.51
2018-03-16T01:18:14.179Z,2.56
2018-03-16T01:19:14.182Z,2.49
2018-03-16T01:20:14.219Z,2.45
2018-03-16T01:21:14.174Z,2.49
2018-03-16T01:22:14.176Z,2.51
2018-03-16T01:23:14.170Z,2.48
2018-03-16T01:24:14.166Z,2.51
2018-03-16T01:25:14.185Z,2.51
2018-03-16T01:26:14.141Z,2.53
2018-03-16T01:27:14.144Z,2.52
2018-03-16T01:28:14.147Z,2.59
2018-03-16T01:29:14.131Z,2.53
2018-03-16T01:30:14.188Z,2.53
2018-03-16T01:31:14.138Z,2.53
2018-03-16T01:32:14.118Z,2.55
2018-03-16T01:33:14.138Z,2.48
2018-03-16T01:34:14.117Z,2.56
2018-03-16T01:35:14.149Z,2.53
2018-03-16T01:36:14.101Z,2.58
2018-03-16T01:37:14.103Z,2.51
2018-03-16T01:38:14.098Z,2.61
2018-03-16T01:39:14.092Z,2.48
2018-03-16T01:40:14.122Z,2.52
2018-03-16T01:41:14.087Z,2.55
2018-03-16T01:42:14.082Z,2.48
2018-03-16T01:43:14.068Z,2.51
2018-03-16T01:44:14.104Z,2.46
2018-03-16T01:45:14.071Z,2.52
2018-03-16T01:46:14.066Z,2.52
2018-03-16T01:47:14.074Z,2.49
2018-03-16T01:48:14.053Z,2.51
2018-03-16T01:49:14.052Z,2.49
2018-03-16T01:50:14.091Z,2.51
2018-03-16T01:51:14.043Z,2.55
2018-03-16T01:52:14.041Z,2.48
2018-03-16T01:53:14.037Z,2.52
2018-03-16T01:54:14.027Z,2.51
2018-03-16T01:55:14.071Z,2.51
2018-03-16T01:56:14.016Z,2.45
2018-03-16T01:57:14.033Z,2.49
2018-03-16T01:58:14.017Z,2.51
2018-03-16T01:59:14.016Z,2.53
2018-03-16T02:00:14.063Z,2.52
2018-03-16T02:01:13.992Z,2.48
2018-03-16T02:02:13.996Z,2.48
2018-03-16T02:03:13.983Z,2.52
2018-03-16T02:04:13.989Z,2.48
2018-03-16T02:05:14.020Z,2.51
2018-03-16T02:06:13.971Z,2.56
2018-03-16T02:07:14.000Z,2.55
2018-03-16T02:08:13.972Z,2.48
2018-03-16T02:09:13.968Z,2.49
2018-03-16T02:10:13.990Z,2.46
2018-03-16T02:11:13.951Z,2.51
2018-03-16T02:12:13.948Z,2.48
2018-03-16T02:13:13.939Z,2.51
2018-03-16T02:14:13.964Z,2.49
2018-03-16T02:15:13.978Z,2.48
2018-03-16T02:16:13.928Z,2.48
2018-03-16T02:17:13.926Z,2.52
2018-03-16T02:18:13.918Z,2.45
2018-03-16T02:19:13.916Z,2.41
2018-03-16T02:20:13.949Z,2.48
2018-03-16T02:21:13.913Z,2.30
2018-03-16T02:22:13.899Z,2.35
2018-03-16T02:23:13.907Z,2.34
2018-03-16T02:24:13.903Z,2.34
2018-03-16T02:25:13.925Z,2.27
2018-03-16T02:26:13.894Z,2.23
2018-03-16T02:27:13.894Z,2.35
2018-03-16T02:28:13.888Z,2.37
2018-03-16T02:29:13.868Z,2.33
2018-03-16T02:30:13.907Z,2.35
2018-03-16T02:31:13.871Z,2.40
2018-03-16T02:32:13.860Z,2.28
2018-03-16T02:33:13.864Z,2.44
2018-03-16T02:34:13.868Z,2.31
2018-03-16T02:35:13.891Z,2.40
2018-03-16T02:36:13.848Z,2.31
2018-03-16T02:37:13.842Z,2.23
2018-03-16T02:38:13.842Z,2.37
2018-03-16T02:39:13.835Z,2.30
2018-03-16T02:40:13.871Z,2.31
2018-03-16T02:41:13.866Z,2.28
2018-03-16T02:42:13.813Z,2.31
2018-03-16T02:43:13.908Z,2.31
2018-03-16T02:44:13.814Z,2.27
2018-03-16T02:45:13.836Z,2.23
2018-03-16T02:46:13.798Z,2.28
2018-03-16T02:47:13.788Z,2.30
2018-03-16T02:48:13.797Z,2.28
2018-03-16T02:49:14.439Z,2.26
2018-03-16T02:50:13.813Z,2.28
2018-03-16T02:51:13.785Z,2.20
2018-03-16T02:52:13.812Z,2.28
2018-03-16T02:53:13.771Z,2.27
2018-03-16T02:54:13.784Z,2.27
2018-03-16T02:55:13.801Z,2.19
2018-03-16T02:56:13.795Z,2.30
2018-03-16T02:57:13.754Z,2.28
2018-03-16T02:58:13.747Z,2.27
2018-03-16T02:59:13.759Z,2.20
2018-03-16T03:00:13.782Z,2.31
2018-03-16T03:01:13.797Z,2.27
2018-03-16T03:02:13.773Z,2.33
2018-03-16T03:03:13.722Z,2.28
2018-03-16T03:04:13.753Z,2.30
2018-03-16T03:05:13.765Z,2.26
2018-03-16T03:06:13.705Z,2.19
2018-03-16T03:07:13.736Z,2.27
2018-03-16T03:08:13.730Z,2.28
2018-03-16T03:09:13.743Z,2.27
2018-03-16T03:10:13.742Z,2.30
2018-03-16T03:11:13.750Z,2.31
2018-03-16T03:12:13.749Z,2.27
2018-03-16T03:13:13.736Z,2.26
2018-03-16T03:14:13.663Z,2.26
2018-03-16T03:15:13.702Z,2.31
2018-03-16T03:16:13.742Z,2.30
2018-03-16T03:17:13.663Z,2.30
2018-03-16T03:18:13.669Z,2.15
2018-03-16T03:19:13.683Z,2.28
2018-03-16T03:20:13.649Z,2.26
2018-03-16T03:21:13.653Z,2.23
2018-03-16T03:22:13.634Z,2.30
2018-03-16T03:23:13.668Z,2.26
2018-03-16T03:24:13.657Z,2.26
2018-03-16T03:25:13.613Z,2.22
2018-03-16T03:26:13.647Z,2.34
2018-03-16T03:27:13.612Z,2.31
2018-03-16T03:28:13.634Z,2.30
2018-03-16T03:29:13.655Z,2.26
2018-03-16T03:30:13.591Z,2.26
2018-03-16T03:31:13.596Z,2.27
2018-03-16T03:32:13.579Z,2.13
2018-03-16T03:33:13.583Z,2.27
2018-03-16T03:34:13.596Z,2.27
2018-03-16T03:35:13.616Z,2.26
2018-03-16T03:36:13.564Z,2.33
2018-03-16T03:37:13.553Z,2.27
2018-03-16T03:38:13.563Z,2.20
2018-03-16T03:39:13.592Z,2.30
2018-03-16T03:40:13.552Z,2.31
2018-03-16T03:41:13.536Z,2.30
2018-03-16T03:42:13.544Z,2.33
2018-03-16T03:43:13.540Z,2.37
2018-03-16T03:44:13.571Z,2.33
2018-03-16T03:45:13.522Z,2.27
2018-03-16T03:46:13.524Z,2.30
2018-03-16T03:47:13.511Z,2.28
2018-03-16T03:48:13.537Z,2.35
2018-03-16T03:49:13.549Z,2.26
2018-03-16T03:50:13.506Z,2.28
2018-03-16T03:51:13.492Z,2.28
2018-03-16T03:52:13.498Z,2.28
2018-03-16T03:53:13.480Z,2.31
2018-03-16T03:54:13.522Z,2.37
2018-03-16T03:55:13.491Z,2.35
2018-03-16T03:56:13.486Z,2.30
2018-03-16T03:57:13.466Z,2.12
2018-03-16T03:58:13.467Z,2.28
2018-03-16T03:59:13.505Z,2.30
2018-03-16T04:00:13.459Z,2.22
2018-03-16T04:01:13.444Z,2.27
2018-03-16T04:02:13.442Z,2.28
2018-03-16T04:03:16.106Z,2.28
2018-03-16T04:04:13.468Z,2.28
2018-03-16T04:05:13.452Z,2.35
2018-03-16T04:06:13.426Z,2.27
2018-03-16T04:07:13.420Z,2.27
2018-03-16T04:08:14.067Z,2.34
2018-03-16T04:09:13.447Z,2.40
2018-03-16T04:10:13.403Z,2.17
2018-03-16T04:11:13.400Z,2.30
2018-03-16T04:12:13.427Z,2.26
2018-03-16T04:13:13.404Z,2.27
2018-03-16T04:14:13.435Z,2.37
2018-03-16T04:15:13.948Z,2.33
2018-03-16T04:16:13.387Z,2.44
2018-03-16T04:17:13.432Z,2.27
2018-03-16T04:18:13.378Z,2.26
2018-03-16T04:19:13.373Z,2.37
2018-03-16T04:20:13.370Z,2.33
2018-03-16T04:21:13.362Z,2.35
2018-03-16T04:22:13.410Z,2.31
2018-03-16T04:23:13.355Z,2.31
2018-03-16T04:24:13.355Z,2.28
2018-03-16T04:25:13.409Z,2.35
2018-03-16T04:26:13.342Z,2.33
2018-03-16T04:27:13.338Z,2.31
2018-03-16T04:28:13.330Z,2.30
2018-03-16T04:29:13.349Z,2.31
2018-03-16T04:30:13.362Z,2.37
2018-03-16T04:31:13.319Z,2.37
2018-03-16T04:32:13.366Z,2.37
2018-03-16T04:33:13.310Z,2.45
2018-03-16T04:34:13.302Z,2.41
2018-03-16T04:35:13.300Z,2.41
2018-03-16T04:36:13.292Z,2.28
2018-03-16T04:37:13.332Z,2.37
2018-03-16T04:38:13.300Z,2.40
2018-03-16T04:39:13.302Z,2.33
2018-03-16T04:40:13.276Z,2.31
2018-03-16T04:41:13.273Z,2.34
2018-03-16T04:42:13.311Z,2.26
2018-03-16T04:43:13.265Z,2.22
2018-03-16T04:44:13.260Z,2.34
2018-03-16T04:45:13.253Z,2.30
2018-03-16T04:46:13.250Z,2.34
2018-03-16T04:47:13.288Z,2.41
2018-03-16T04:48:13.239Z,2.33
2018-03-16T04:49:13.239Z,2.33
2018-03-16T04:50:13.232Z,2.31
2018-03-16T04:51:13.223Z,2.30
2018-03-16T04:52:13.272Z,2.35
2018-03-16T04:53:13.224Z,2.35
2018-03-16T04:54:13.212Z,2.37
2018-03-16T04:55:14.175Z,2.34
2018-03-16T04:56:13.207Z,2.31
2018-03-16T04:57:13.928Z,2.28
2018-03-16T04:58:13.193Z,2.35
2018-03-16T04:59:13.252Z,2.28
2018-03-16T05:00:13.185Z,2.33
2018-03-16T05:01:14.164Z,2.30
2018-03-16T05:02:13.216Z,2.26
2018-03-16T05:03:13.170Z,2.31
2018-03-16T05:04:13.164Z,2.35
2018-03-16T05:05:13.165Z,2.33
2018-03-16T05:06:13.160Z,2.37
2018-03-16T05:07:13.192Z,2.34
2018-03-16T05:08:13.145Z,2.31
2018-03-16T05:09:13.143Z,2.35
2018-03-16T05:10:13.136Z,2.35
2018-03-16T05:11:13.186Z,2.33
2018-03-16T05:12:13.152Z,2.38
2018-03-16T05:13:13.122Z,2.38
2018-03-16T05:14:13.166Z,2.37
2018-03-16T05:15:13.113Z,2.48
2018-03-16T05:16:13.114Z,2.45
2018-03-16T05:17:13.106Z,2.41
2018-03-16T05:18:13.112Z,2.45
2018-03-16T05:19:13.136Z,2.44
2018-03-16T05:20:13.089Z,2.45
2018-03-16T05:21:13.085Z,2.48
2018-03-16T05:22:13.123Z,2.49
2018-03-16T05:23:13.074Z,2.41
2018-03-16T05:24:13.074Z,2.40
2018-03-16T05:25:13.066Z,2.41
2018-03-16T05:26:13.067Z,2.46
2018-03-16T05:27:13.099Z,2.48
2018-03-16T05:28:13.055Z,2.44
2018-03-16T05:29:13.046Z,2.44
2018-03-16T05:30:13.047Z,2.45
2018-03-16T05:31:13.040Z,2.48
2018-03-16T05:32:13.072Z,2.52
2018-03-16T05:33:13.032Z,2.45
2018-03-16T05:34:13.024Z,2.51
2018-03-16T05:35:13.020Z,2.40
2018-03-16T05:36:13.016Z,2.45
2018-03-16T05:37:13.050Z,2.46
2018-03-16T05:38:13.009Z,2.44
2018-03-16T05:39:13.006Z,2.38
2018-03-16T05:40:12.997Z,2.45
2018-03-16T05:41:12.996Z,2.48
2018-03-16T05:42:13.040Z,2.52
2018-03-16T05:43:12.987Z,2.46
2018-03-16T05:44:12.978Z,2.46
2018-03-16T05:45:13.012Z,2.51
2018-03-16T05:46:12.979Z,2.44
2018-03-16T05:47:12.967Z,2.44
2018-03-16T05:48:13.011Z,2.49
2018-03-16T05:49:12.957Z,2.48
2018-03-16T05:50:13.011Z,2.48
2018-03-16T05:51:12.957Z,2.52
2018-03-16T05:52:12.995Z,2.52
2018-03-16T05:53:12.957Z,2.55
2018-03-16T05:54:12.935Z,2.55
2018-03-16T05:55:12.940Z,2.55
2018-03-16T05:56:12.969Z,2.51
2018-03-16T05:57:12.922Z,2.48
2018-03-16T05:58:12.968Z,2.51
2018-03-16T05:59:12.911Z,2.51
2018-03-16T06:00:12.932Z,2.69
2018-03-16T06:01:12.943Z,2.53
2018-03-16T06:02:12.896Z,2.55
2018-03-16T06:03:12.942Z,2.48
2018-03-16T06:04:12.888Z,2.55
2018-03-16T06:05:12.881Z,2.56
2018-03-16T06:06:12.879Z,2.51
2018-03-16T06:07:12.930Z,2.56
2018-03-16T06:08:12.867Z,2.46
2018-03-16T06:09:12.865Z,2.51
2018-03-16T06:10:12.861Z,2.51
2018-03-16T06:11:12.855Z,2.53
2018-03-16T06:12:12.900Z,2.52
2018-03-16T06:13:12.847Z,2.51
2018-03-16T06:14:12.840Z,2.48
2018-03-16T06:15:12.891Z,2.51
2018-03-16T06:16:12.842Z,2.66
2018-03-16T06:17:12.828Z,2.59
2018-03-16T06:18:12.860Z,2.64
2018-03-16T06:19:12.837Z,2.66
2018-03-16T06:20:12.843Z,2.56
2018-03-16T06:21:12.809Z,2.55
2018-03-16T06:22:12.858Z,2.58
2018-03-16T06:23:12.800Z,2.48
2018-03-16T06:24:12.800Z,2.55
2018-03-16T06:25:12.830Z,2.51
2018-03-16T06:26:12.788Z,2.52
2018-03-16T06:27:12.791Z,2.48
2018-03-16T06:28:12.819Z,2.55
2018-03-16T06:29:12.773Z,2.55
2018-03-16T06:30:12.772Z,2.51
2018-03-16T06:31:12.766Z,2.66
2018-03-16T06:32:12.764Z,2.49
2018-03-16T06:33:12.793Z,2.64
2018-03-16T06:34:12.753Z,2.66
2018-03-16T06:35:12.750Z,2.58
2018-03-16T06:36:12.745Z,2.69
2018-03-16T06:37:12.739Z,2.66
2018-03-16T06:38:12.776Z,2.63
2018-03-16T06:39:12.728Z,2.59
2018-03-16T06:40:12.734Z,2.63
2018-03-16T06:41:12.719Z,2.64
2018-03-16T06:42:13.460Z,2.58
2018-03-16T06:43:12.771Z,2.67
2018-03-16T06:44:12.707Z,2.67
2018-03-16T06:45:12.708Z,2.76
2018-03-16T06:46:12.699Z,2.76
2018-03-16T06:47:12.716Z,2.66
2018-03-16T06:48:12.739Z,2.77
2018-03-16T06:49:12.734Z,2.73
2018-03-16T06:50:12.681Z,2.69
2018-03-16T06:51:12.677Z,2.61
2018-03-16T06:52:12.672Z,2.67
2018-03-16T06:53:12.665Z,2.71
2018-03-16T06:54:12.718Z,2.76
2018-03-16T06:55:12.662Z,2.67
2018-03-16T06:56:12.657Z,2.81
2018-03-16T06:57:12.648Z,2.73
2018-03-16T06:58:12.644Z,2.71
2018-03-16T06:59:12.691Z,2.71
2018-03-16T07:00:13.463Z,2.74
2018-03-16T07:01:12.635Z,2.69
2018-03-16T07:02:12.626Z,2.71
2018-03-16T07:03:12.625Z,2.71
2018-03-16T07:04:12.675Z,2.76
2018-03-16T07:05:12.617Z,2.77
2018-03-16T07:06:12.614Z,2.81
2018-03-16T07:07:12.620Z,2.74
2018-03-16T07:08:12.649Z,2.76
2018-03-16T07:09:12.599Z,2.84
2018-03-16T07:10:12.593Z,2.71
2018-03-16T07:11:12.595Z,2.85
2018-03-16T07:12:12.584Z,2.76
2018-03-16T07:13:12.620Z,2.77
2018-03-16T07:14:19.950Z,2.85
2018-03-16T07:15:12.571Z,2.81
2018-03-16T07:16:12.572Z,2.89
2018-03-16T07:17:12.565Z,2.94
2018-03-16T07:18:12.599Z,2.91
2018-03-16T07:19:12.554Z,3.00
2018-03-16T07:20:12.552Z,2.92
2018-03-16T07:21:12.572Z,2.94
2018-03-16T07:22:12.542Z,2.95
2018-03-16T07:23:12.636Z,3.00
2018-03-16T07:24:12.534Z,3.05
2018-03-16T07:25:13.019Z,3.09
2018-03-16T07:26:12.531Z,3.13
2018-03-16T07:27:12.520Z,3.16
2018-03-16T07:28:12.559Z,3.15
2018-03-16T07:29:12.536Z,3.12
2018-03-16T07:30:12.533Z,2.97
2018-03-16T07:31:12.523Z,3.10
2018-03-16T07:32:12.522Z,3.06
2018-03-16T07:33:12.548Z,3.02
2018-03-16T07:34:12.496Z,3.03
2018-03-16T07:35:12.514Z,3.02
2018-03-16T07:36:12.487Z,3.06
2018-03-16T07:37:12.539Z,3.07
2018-03-16T07:38:12.521Z,3.16
2018-03-16T07:39:12.495Z,3.20
2018-03-16T07:40:12.471Z,3.13
2018-03-16T07:41:12.484Z,3.06
2018-03-16T07:42:12.462Z,3.00
2018-03-16T07:43:12.502Z,3.02
2018-03-16T07:44:12.460Z,3.10
2018-03-16T07:45:12.454Z,3.12
2018-03-16T07:46:12.461Z,3.07
2018-03-16T07:47:12.445Z,3.07
2018-03-16T07:48:12.480Z,3.15
2018-03-16T07:49:12.440Z,3.25
2018-03-16T07:50:12.435Z,3.18
2018-03-16T07:51:12.428Z,3.10
2018-03-16T07:52:12.425Z,3.30
2018-03-16T07:53:12.458Z,3.36
2018-03-16T07:54:12.418Z,3.25
2018-03-16T07:55:12.414Z,3.25
2018-03-16T07:56:12.408Z,3.18
2018-03-16T07:57:12.454Z,3.27
2018-03-16T07:58:12.401Z,3.27
2018-03-16T07:59:12.436Z,3.30
2018-03-16T08:00:12.546Z,3.25
2018-03-16T08:01:12.392Z,3.23
2018-03-16T08:02:12.428Z,3.30
2018-03-16T08:03:12.404Z,3.33
2018-03-16T08:04:12.379Z,3.34
2018-03-16T08:05:12.375Z,3.43
2018-03-16T08:06:12.382Z,3.42
2018-03-16T08:07:12.403Z,3.34
2018-03-16T08:08:12.366Z,3.39
2018-03-16T08:09:12.362Z,3.42
2018-03-16T08:10:12.356Z,3.50
2018-03-16T08:11:12.354Z,3.36
2018-03-16T08:12:12.388Z,3.43
2018-03-16T08:13:12.362Z,3.39
2018-03-16T08:14:12.346Z,3.39
2018-03-16T08:15:12.384Z,3.50
2018-03-16T08:16:12.366Z,3.52
2018-03-16T08:17:12.370Z,3.47
2018-03-16T08:18:12.331Z,3.50
2018-03-16T08:19:12.327Z,3.46
2018-03-16T08:20:12.321Z,3.47
2018-03-16T08:21:12.315Z,3.53
2018-03-16T08:22:12.360Z,3.61
2018-03-16T08:23:12.332Z,3.67
2018-03-16T08:24:12.347Z,3.62
2018-03-16T08:25:12.302Z,3.61
2018-03-16T08:26:12.299Z,3.52
2018-03-16T08:27:12.297Z,3.58
2018-03-16T08:28:12.341Z,3.67
2018-03-16T08:29:12.288Z,3.60
2018-03-16T08:30:12.311Z,3.65
2018-03-16T08:31:12.283Z,3.65
2018-03-16T08:32:12.278Z,3.72
2018-03-16T08:33:12.323Z,3.60
2018-03-16T08:34:12.270Z,3.68
2018-03-16T08:35:12.269Z,3.60
2018-03-16T08:36:12.265Z,3.53
2018-03-16T08:37:12.265Z,3.52
2018-03-16T08:38:12.294Z,3.67
2018-03-16T08:39:12.259Z,3.58
2018-03-16T08:40:12.261Z,3.76
2018-03-16T08:41:12.245Z,3.64
2018-03-16T08:42:12.245Z,3.64
2018-03-16T08:43:12.282Z,3.76
2018-03-16T08:44:12.238Z,3.61
2018-03-16T08:45:12.234Z,3.80
2018-03-16T08:46:12.261Z,3.67
2018-03-16T08:47:12.228Z,3.88
2018-03-16T08:48:12.262Z,3.83
2018-03-16T08:49:12.223Z,3.90
2018-03-16T08:50:12.223Z,3.89
2018-03-16T08:51:12.236Z,3.94
2018-03-16T08:52:12.211Z,3.90
2018-03-16T08:53:12.264Z,3.72
2018-03-16T08:54:12.205Z,3.67
2018-03-16T08:55:12.200Z,3.76
2018-03-16T08:56:12.198Z,3.78
2018-03-16T08:57:12.193Z,3.89
2018-03-16T08:58:12.232Z,3.80
2018-03-16T08:59:12.229Z,3.90
2018-03-16T09:00:12.189Z,3.94
2018-03-16T09:01:12.206Z,3.90
2018-03-16T09:02:12.181Z,3.90
2018-03-16T09:03:12.758Z,3.92
2018-03-16T09:04:12.231Z,3.88
2018-03-16T09:05:12.171Z,4.01
2018-03-16T09:06:12.171Z,4.16
2018-03-16T09:07:12.168Z,4.16
2018-03-16T09:08:12.163Z,4.15
2018-03-16T09:09:12.198Z,4.29
2018-03-16T09:10:12.156Z,4.43
2018-03-16T09:11:12.158Z,4.28
2018-03-16T09:12:12.151Z,4.21
2018-03-16T09:13:12.187Z,4.29
2018-03-16T09:14:12.164Z,4.28
2018-03-16T09:15:12.144Z,4.16
2018-03-16T09:16:12.141Z,4.28
2018-03-16T09:17:12.141Z,4.29
2018-03-16T09:18:12.195Z,4.32
2018-03-16T09:19:12.183Z,4.42
2018-03-16T09:20:12.132Z,4.43
2018-03-16T09:21:12.154Z,4.37
2018-03-16T09:22:12.126Z,4.29
2018-03-16T09:23:12.121Z,4.25
2018-03-16T09:24:12.163Z,4.19
2018-03-16T09:25:12.159Z,4.18
2018-03-16T09:26:12.116Z,4.15
2018-03-16T09:27:12.666Z,4.18
2018-03-16T09:28:12.110Z,4.14
2018-03-16T09:29:12.106Z,4.22
2018-03-16T09:30:12.146Z,4.43
2018-03-16T09:31:12.123Z,4.25
2018-03-16T09:32:12.101Z,4.25
2018-03-16T09:33:12.096Z,4.25
2018-03-16T09:34:12.097Z,4.42
2018-03-16T09:35:12.129Z,4.39
2018-03-16T09:36:12.088Z,4.42
2018-03-16T09:37:12.102Z,4.14
2018-03-16T09:38:12.101Z,4.24
2018-03-16T09:39:12.082Z,4.25
2018-03-16T09:40:12.119Z,4.26
2018-03-16T09:41:12.096Z,4.15
2018-03-16T09:42:12.079Z,4.15
2018-03-16T09:43:12.075Z,4.25
2018-03-16T09:44:12.069Z,4.25
2018-03-16T09:45:12.122Z,4.24
2018-03-16T09:46:12.067Z,4.28
2018-03-16T09:47:12.062Z,4.33
2018-03-16T09:48:12.076Z,4.37
2018-03-16T09:49:12.055Z,4.40
2018-03-16T09:50:12.106Z,4.29
2018-03-16T09:51:12.052Z,4.26
2018-03-16T09:52:12.050Z,4.24
2018-03-16T09:53:12.044Z,4.21
2018-03-16T09:54:12.180Z,4.26
2018-03-16T09:55:12.051Z,4.16
2018-03-16T09:56:12.039Z,4.12
2018-03-16T09:57:12.036Z,4.24
2018-03-16T09:58:12.045Z,4.39
2018-03-16T09:59:12.081Z,4.47
2018-03-16T10:00:12.032Z,4.26
2018-03-16T10:01:12.024Z,4.33
2018-03-16T10:02:12.059Z,4.29
2018-03-16T10:03:12.019Z,4.28
2018-03-16T10:04:12.060Z,4.34
2018-03-16T10:05:12.023Z,4.33
2018-03-16T10:06:12.064Z,4.37
2018-03-16T10:07:12.012Z,4.43
2018-03-16T10:08:12.005Z,4.37
2018-03-16T10:09:12.045Z,4.37
2018-03-16T10:10:12.001Z,4.42
2018-03-16T10:11:11.997Z,4.29
2018-03-16T10:12:12.055Z,4.25
2018-03-16T10:13:11.992Z,4.33
2018-03-16T10:14:14.118Z,4.12
2018-03-16T10:15:12.040Z,4.34
2018-03-16T10:16:11.984Z,4.37
2018-03-16T10:17:12.019Z,4.28
2018-03-16T10:18:11.979Z,4.16
2018-03-16T10:19:11.996Z,4.26
2018-03-16T10:20:11.971Z,4.24
2018-03-16T10:21:11.969Z,4.19
2018-03-16T10:22:12.025Z,4.24
2018-03-16T10:23:11.965Z,4.26
2018-03-16T10:24:12.000Z,4.42
2018-03-16T10:25:11.956Z,4.39
2018-03-16T10:26:11.954Z,4.47
2018-03-16T10:27:12.002Z,4.42
2018-03-16T10:28:11.952Z,4.44
2018-03-16T10:29:12.000Z,4.28
2018-03-16T10:30:11.947Z,4.29
2018-03-16T10:31:11.943Z,4.39
2018-03-16T10:32:11.938Z,4.43
2018-03-16T10:33:11.936Z,4.50
2018-03-16T10:34:11.980Z,4.46
2018-03-16T10:35:11.933Z,4.42
2018-03-16T10:36:11.927Z,4.58
2018-03-16T10:37:11.924Z,4.65
2018-03-16T10:38:11.963Z,4.57
2018-03-16T10:39:11.923Z,4.55
2018-03-16T10:40:11.919Z,4.54
2018-03-16T10:41:11.916Z,4.61
2018-03-16T10:42:11.909Z,4.61
2018-03-16T10:43:11.963Z,4.50
2018-03-16T10:44:11.905Z,4.64
2018-03-16T10:45:11.904Z,4.69
2018-03-16T10:46:11.903Z,4.73
2018-03-16T10:47:11.897Z,4.76
2018-03-16T10:48:11.932Z,4.91
2018-03-16T10:49:11.891Z,4.83
2018-03-16T10:50:12.294Z,4.73
2018-03-16T10:51:11.890Z,4.77
2018-03-16T10:52:11.902Z,4.61
2018-03-16T10:53:11.952Z,4.58
2018-03-16T10:54:11.916Z,4.54
2018-03-16T10:55:11.890Z,4.46
2018-03-16T10:56:11.907Z,4.50
2018-03-16T10:57:11.881Z,4.54
2018-03-16T10:58:11.913Z,4.64
2018-03-16T10:59:11.867Z,4.65
2018-03-16T11:00:11.865Z,4.84
2018-03-16T11:01:11.865Z,4.94
2018-03-16T11:02:11.863Z,4.84
2018-03-16T11:03:11.927Z,4.73
2018-03-16T11:04:11.854Z,4.77
2018-03-16T11:05:11.854Z,4.75
2018-03-16T11:06:11.851Z,4.64
2018-03-16T11:07:11.850Z,4.65
2018-03-16T11:08:11.890Z,4.52
2018-03-16T11:09:12.452Z,4.62
2018-03-16T11:10:12.457Z,4.59
2018-03-16T11:11:11.853Z,4.75
2018-03-16T11:12:11.840Z,4.91
2018-03-16T11:13:11.873Z,4.96
2018-03-16T11:14:11.834Z,5.10
2018-03-16T11:15:11.831Z,5.02
2018-03-16T11:16:11.826Z,4.99
2018-03-16T11:17:11.832Z,4.83
2018-03-16T11:18:11.861Z,4.83
2018-03-16T11:19:11.821Z,4.79
2018-03-16T11:20:11.839Z,4.99
2018-03-16T11:21:11.814Z,4.89
2018-03-16T11:22:11.814Z,4.83
2018-03-16T11:23:11.850Z,4.84
2018-03-16T11:24:11.810Z,4.70
2018-03-16T11:25:11.805Z,4.95
2018-03-16T11:26:11.806Z,4.76
2018-03-16T11:27:11.820Z,4.80
2018-03-16T11:28:11.837Z,4.91
2018-03-16T11:29:11.798Z,4.79
2018-03-16T11:30:11.799Z,4.70
2018-03-16T11:31:11.794Z,4.75
2018-03-16T11:32:11.794Z,4.69
2018-03-16T11:33:11.839Z,4.77
2018-03-16T11:34:11.914Z,4.72
2018-03-16T11:35:11.789Z,4.70
2018-03-16T11:36:11.782Z,4.79
2018-03-16T11:37:11.789Z,4.76
2018-03-16T11:38:11.815Z,4.73
2018-03-16T11:39:11.777Z,4.61
2018-03-16T11:40:11.777Z,4.51
2018-03-16T11:41:11.771Z,4.51
2018-03-16T11:42:11.767Z,4.64
2018-03-16T11:43:11.806Z,4.46
2018-03-16T11:44:11.767Z,4.50
2018-03-16T11:45:11.761Z,4.40
2018-03-16T11:46:11.758Z,4.36
2018-03-16T11:47:12.467Z,4.52
2018-03-16T11:48:11.791Z,4.50
2018-03-16T11:49:11.803Z,4.43
2018-03-16T11:50:11.756Z,4.40
2018-03-16T11:51:11.763Z,4.44
2018-03-16T11:52:11.745Z,4.43
2018-03-16T11:53:11.792Z,4.46
2018-03-16T11:54:11.791Z,4.52
2018-03-16T11:55:11.740Z,4.59
2018-03-16T11:56:11.735Z,4.65
2018-03-16T11:57:11.737Z,4.75
2018-03-16T11:58:11.730Z,4.70
2018-03-16T11:59:11.774Z,4.79
2018-03-16T12:00:11.725Z,4.98
2018-03-16T12:01:11.735Z,4.89
2018-03-16T12:02:11.717Z,4.92
2018-03-16T12:03:11.771Z,5.04
2018-03-16T12:04:11.755Z,4.94
2018-03-16T12:05:11.711Z,4.75
2018-03-16T12:06:11.736Z,4.73
2018-03-16T12:07:11.712Z,4.70
2018-03-16T12:08:11.730Z,4.51
2018-03-16T12:09:11.751Z,4.50
2018-03-16T12:10:11.701Z,4.39
2018-03-16T12:11:11.698Z,4.24
2018-03-16T12:12:12.460Z,4.10
2018-03-16T12:13:11.721Z,4.18
2018-03-16T12:14:11.741Z,4.18
2018-03-16T12:15:11.688Z,4.12
2018-03-16T12:16:11.683Z,4.12
2018-03-16T12:17:11.680Z,4.08
2018-03-16T12:18:11.701Z,3.92
2018-03-16T12:19:11.713Z,3.88
2018-03-16T12:20:11.673Z,3.98
2018-03-16T12:21:11.681Z,3.97
2018-03-16T12:22:11.667Z,3.89
2018-03-16T12:23:11.675Z,3.89
2018-03-16T12:24:11.702Z,3.90
2018-03-16T12:25:11.683Z,3.92
2018-03-16T12:26:11.654Z,3.68
2018-03-16T12:27:11.655Z,3.80
2018-03-16T12:28:11.674Z,3.65
2018-03-16T12:29:11.688Z,3.70
2018-03-16T12:30:11.642Z,3.72
2018-03-16T12:31:11.644Z,3.61
2018-03-16T12:32:11.640Z,3.50
2018-03-16T12:33:11.632Z,3.53
2018-03-16T12:34:11.668Z,3.57
2018-03-16T12:35:11.655Z,3.60
2018-03-16T12:36:11.626Z,3.50
2018-03-16T12:37:11.633Z,3.39
2018-03-16T12:38:11.642Z,3.30
2018-03-16T12:39:11.658Z,3.27
2018-03-16T12:40:11.616Z,3.16
2018-03-16T12:41:11.633Z,3.16
2018-03-16T12:42:11.631Z,3.18
2018-03-16T12:43:11.601Z,3.03
2018-03-16T12:44:11.636Z,2.98
2018-03-16T12:45:11.592Z,2.98
2018-03-16T12:46:11.599Z,2.87
2018-03-16T12:47:11.586Z,2.94
2018-03-16T12:48:11.623Z,2.97
2018-03-16T12:49:11.579Z,3.03
2018-03-16T12:50:11.576Z,3.06
2018-03-16T12:51:11.573Z,3.03
2018-03-16T12:52:11.596Z,3.06
2018-03-16T12:53:11.603Z,3.10
2018-03-16T12:54:11.561Z,3.06
2018-03-16T12:55:11.559Z,3.02
2018-03-16T12:56:11.554Z,3.03
2018-03-16T12:57:11.549Z,3.03
2018-03-16T12:58:11.586Z,2.87
2018-03-16T12:59:11.563Z,2.84
2018-03-16T13:00:11.538Z,2.91
2018-03-16T13:01:11.534Z,2.88
2018-03-16T13:02:11.532Z,2.74
2018-03-16T13:03:11.567Z,2.82
2018-03-16T13:04:11.523Z,2.76
2018-03-16T13:05:11.518Z,2.73
2018-03-16T13:06:11.517Z,2.77
2018-03-16T13:07:11.510Z,2.73
2018-03-16T13:08:11.560Z,2.77
2018-03-16T13:09:11.514Z,2.76
2018-03-16T13:10:11.504Z,2.71
2018-03-16T13:11:11.500Z,2.71
2018-03-16T13:12:11.508Z,2.77
2018-03-16T13:13:11.527Z,2.76
2018-03-16T13:14:11.485Z,2.85
2018-03-16T13:15:11.486Z,2.71
2018-03-16T13:16:11.481Z,2.71
2018-03-16T13:17:11.484Z,2.64
2018-03-16T13:18:11.553Z,2.73